Time;durP1;ratioP1;P1;durP2;ratioP2;P2;SDS_P1;SDS_P2;PMS_P1;PMS_P2;Temp;Humidity;BMP_temperature;BMP_pressure;BME280_temperature;BME280_humidity;BME280_pressure;Samples;Min_cycle;Max_cycle;Signal;HPM_P1;HPM_P2
2024/01/16 00:00:26;;;;;;;;;102.00;93.00;;;;;;;;5029694;28;29028;-77
2024/01/16 00:02:52;;;;;;;;;97.25;81.50;;;;;;;;5026836;28;28532;-74
2024/01/16 00:05:17;;;;;;;;;93.75;74.50;;;;;;;;5037400;28;28929;-75
2024/01/16 00:07:42;;;;;;;;;92.75;76.25;;;;;;;;5030021;28;28945;-75
2024/01/16 00:10:08;;;;;;;;;97.00;83.25;;;;;;;;5032303;28;28514;-75
2024/01/16 00:12:33;;;;;;;;;93.50;75.50;;;;;;;;5031188;28;28884;-75
2024/01/16 00:14:58;;;;;;;;;90.50;73.00;;;;;;;;5032501;28;28749;-75
2024/01/16 00:17:23;;;;;;;;;87.00;67.00;;;;;;;;5034371;28;28669;-75
2024/01/16 00:19:49;;;;;;;;;89.50;69.25;;;;;;;;5031069;28;28632;-76
2024/01/16 00:22:14;;;;;;;;;89.25;72.75;;;;;;;;5030071;28;28541;-75
2024/01/16 00:24:40;;;;;;;;;91.50;71.25;;;;;;;;5032033;28;28791;-75
2024/01/16 00:27:05;;;;;;;;;100.50;82.00;;;;;;;;5025783;28;28544;-75
2024/01/16 00:29:30;;;;;;;;;94.50;70.25;;;;;;;;5030206;28;28700;-76
2024/01/16 00:31:56;;;;;;;;;91.50;71.25;;;;;;;;5030648;28;29119;-76
2024/01/16 00:34:21;;;;;;;;;99.00;77.50;;;;;;;;5032093;28;29673;-76
2024/01/16 00:36:46;;;;;;;;;93.50;73.75;;;;;;;;5033835;28;28437;-76
2024/01/16 00:39:13;;;;;;;;;90.50;73.25;;;;;;;;5046953;28;28859;-76
2024/01/16 00:41:38;;;;;;;;;92.00;69.25;;;;;;;;5049657;28;28465;-75
2024/01/16 00:44:03;;;;;;;;;91.75;73.50;;;;;;;;5047975;28;29003;-76
2024/01/16 00:46:29;;;;;;;;;94.50;73.75;;;;;;;;5027506;28;28755;-76
2024/01/16 00:48:54;;;;;;;;;93.00;69.00;;;;;;;;5047335;28;28874;-76
2024/01/16 00:51:19;;;;;;;;;90.50;74.00;;;;;;;;5037378;28;28556;-77
2024/01/16 00:53:45;;;;;;;;;94.50;76.00;;;;;;;;5040088;28;28533;-77
2024/01/16 00:56:10;;;;;;;;;92.75;72.25;;;;;;;;5029439;28;28570;-77
2024/01/16 00:58:36;;;;;;;;;85.75;67.25;;;;;;;;5049448;28;28763;-75
2024/01/16 01:01:01;;;;;;;;;85.25;64.50;;;;;;;;5030515;28;28599;-76
2024/01/16 01:03:26;;;;;;;;;85.50;64.75;;;;;;;;5033275;28;28560;-75
2024/01/16 01:05:51;;;;;;;;;79.75;61.50;;;;;;;;5040872;28;28600;-75
2024/01/16 01:08:17;;;;;;;;;86.25;64.25;;;;;;;;5032406;28;28468;-75
2024/01/16 01:10:42;;;;;;;;;75.50;57.75;;;;;;;;5032899;28;28501;-75
2024/01/16 01:13:07;;;;;;;;;70.75;55.50;;;;;;;;5030756;28;28648;-76
2024/01/16 01:15:32;;;;;;;;;66.25;55.25;;;;;;;;5026926;28;28571;-76
2024/01/16 01:17:58;;;;;;;;;71.00;59.50;;;;;;;;5029600;28;28882;-77
2024/01/16 01:20:23;;;;;;;;;72.25;56.50;;;;;;;;5028985;28;28942;-76
2024/01/16 01:22:48;;;;;;;;;78.50;55.75;;;;;;;;5041903;28;28867;-76
2024/01/16 01:25:14;;;;;;;;;76.50;59.25;;;;;;;;5038275;28;28474;-75
2024/01/16 01:27:39;;;;;;;;;77.00;54.50;;;;;;;;5039350;28;28983;-77
2024/01/16 01:30:05;;;;;;;;;70.25;56.25;;;;;;;;5028311;28;28937;-76
2024/01/16 01:32:31;;;;;;;;;74.75;57.50;;;;;;;;5034893;28;28782;-76
2024/01/16 01:34:56;;;;;;;;;74.25;57.50;;;;;;;;5029866;28;28746;-75
2024/01/16 01:37:21;;;;;;;;;73.25;58.75;;;;;;;;5027839;28;28791;-77
2024/01/16 01:39:46;;;;;;;;;71.25;56.25;;;;;;;;5029199;28;28578;-75
2024/01/16 01:42:12;;;;;;;;;75.25;59.50;;;;;;;;5031194;28;29837;-75
2024/01/16 01:44:37;;;;;;;;;76.25;57.75;;;;;;;;5028514;28;28843;-75
2024/01/16 01:47:02;;;;;;;;;77.00;58.50;;;;;;;;5029250;28;28515;-75
2024/01/16 01:49:28;;;;;;;;;75.75;59.50;;;;;;;;5028035;28;28809;-76
2024/01/16 01:51:54;;;;;;;;;79.00;60.50;;;;;;;;5028712;28;29696;-76
2024/01/16 01:54:19;;;;;;;;;86.75;64.25;;;;;;;;5027838;28;28892;-75
2024/01/16 01:56:45;;;;;;;;;77.25;59.50;;;;;;;;5035553;28;28572;-75
2024/01/16 01:59:11;;;;;;;;;83.75;61.00;;;;;;;;5028054;28;28262;-75
2024/01/16 02:01:36;;;;;;;;;73.25;56.25;;;;;;;;5040663;28;29157;-75
2024/01/16 02:04:01;;;;;;;;;87.75;61.75;;;;;;;;5035517;28;28919;-76
2024/01/16 02:06:27;;;;;;;;;72.75;58.00;;;;;;;;5039251;28;29032;-74
2024/01/16 02:08:53;;;;;;;;;80.25;60.50;;;;;;;;5036251;28;28635;-76
2024/01/16 02:11:19;;;;;;;;;82.50;62.00;;;;;;;;5026345;28;30349;-76
2024/01/16 02:13:44;;;;;;;;;85.00;65.50;;;;;;;;5027914;28;28501;-77
2024/01/16 02:16:22;;;;;;;;;76.25;58.00;;;;;;;;5031043;28;28494;-75
2024/01/16 02:18:48;;;;;;;;;82.50;61.75;;;;;;;;5031734;28;28873;-75
2024/01/16 02:21:17;;;;;;;;;79.75;58.75;;;;;;;;5040441;28;28413;-76
2024/01/16 02:23:42;;;;;;;;;82.50;61.00;;;;;;;;5039051;28;28853;-77
2024/01/16 02:26:08;;;;;;;;;78.25;62.00;;;;;;;;5033369;28;29025;-77
2024/01/16 02:28:33;;;;;;;;;78.00;59.50;;;;;;;;5039407;28;28831;-76
2024/01/16 02:30:58;;;;;;;;;75.50;58.25;;;;;;;;5035235;28;28701;-76
2024/01/16 02:33:23;;;;;;;;;81.00;62.25;;;;;;;;5028330;28;28613;-76
2024/01/16 02:35:49;;;;;;;;;74.00;57.50;;;;;;;;5031097;28;28505;-76
2024/01/16 02:38:14;;;;;;;;;85.25;65.50;;;;;;;;5030532;28;30795;-74
2024/01/16 02:40:40;;;;;;;;;83.50;61.25;;;;;;;;5033918;28;30005;-75
2024/01/16 02:43:05;;;;;;;;;77.25;61.25;;;;;;;;5037223;28;28834;-75
2024/01/16 02:45:31;;;;;;;;;79.75;62.25;;;;;;;;5027205;28;28441;-75
2024/01/16 02:47:56;;;;;;;;;77.50;57.50;;;;;;;;5024658;28;28482;-76
2024/01/16 02:50:21;;;;;;;;;83.25;64.00;;;;;;;;5031426;28;28638;-75
2024/01/16 02:52:47;;;;;;;;;79.25;61.75;;;;;;;;5027453;28;28410;-75
2024/01/16 02:55:12;;;;;;;;;75.75;61.50;;;;;;;;5034569;28;29168;-76
2024/01/16 02:57:37;;;;;;;;;82.25;61.50;;;;;;;;5029057;28;29210;-76
2024/01/16 03:00:03;;;;;;;;;72.00;56.75;;;;;;;;5035562;28;30220;-76
2024/01/16 03:02:28;;;;;;;;;79.75;60.00;;;;;;;;5033258;28;28792;-74
2024/01/16 03:04:54;;;;;;;;;74.00;57.25;;;;;;;;5030836;28;28850;-75
2024/01/16 03:07:19;;;;;;;;;64.25;54.75;;;;;;;;5030083;28;28604;-76
2024/01/16 03:09:45;;;;;;;;;70.75;55.00;;;;;;;;5035888;28;29928;-74
2024/01/16 03:12:10;;;;;;;;;78.50;59.00;;;;;;;;5037624;28;28836;-75
2024/01/16 03:14:36;;;;;;;;;75.25;58.00;;;;;;;;5032840;28;28807;-75
2024/01/16 03:17:02;;;;;;;;;70.00;55.75;;;;;;;;5037182;28;29275;-76
2024/01/16 03:19:27;;;;;;;;;69.00;50.25;;;;;;;;5028833;28;28860;-76
2024/01/16 03:21:52;;;;;;;;;66.50;49.50;;;;;;;;5031100;28;28559;-75
2024/01/16 03:24:17;;;;;;;;;71.50;53.75;;;;;;;;5033552;28;28468;-75
2024/01/16 03:26:43;;;;;;;;;63.00;48.25;;;;;;;;5031278;28;28725;-75
2024/01/16 03:29:11;;;;;;;;;81.75;60.75;;;;;;;;5038672;28;28429;-75
2024/01/16 03:31:36;;;;;;;;;76.25;57.75;;;;;;;;5039257;28;28410;-75
2024/01/16 03:34:01;;;;;;;;;79.50;58.75;;;;;;;;5032035;28;28421;-74
2024/01/16 03:36:27;;;;;;;;;81.25;60.00;;;;;;;;5033576;28;28559;-76
2024/01/16 03:38:52;;;;;;;;;78.75;62.00;;;;;;;;5031892;28;30060;-75
2024/01/16 03:41:17;;;;;;;;;79.75;58.50;;;;;;;;5031313;28;28942;-76
2024/01/16 03:43:42;;;;;;;;;77.00;58.00;;;;;;;;5030386;28;28569;-74
2024/01/16 03:46:10;;;;;;;;;77.75;59.75;;;;;;;;5026341;28;28838;-75
2024/01/16 03:48:35;;;;;;;;;66.50;51.75;;;;;;;;5024005;28;30217;-77
2024/01/16 03:51:01;;;;;;;;;80.00;59.75;;;;;;;;5034683;28;28812;-75
2024/01/16 03:53:27;;;;;;;;;75.50;59.75;;;;;;;;5031655;28;28576;-76
2024/01/16 03:55:52;;;;;;;;;77.50;57.75;;;;;;;;5026401;28;29003;-76
2024/01/16 03:58:18;;;;;;;;;75.75;57.25;;;;;;;;5026032;28;29027;-76
2024/01/16 04:00:43;;;;;;;;;71.00;56.00;;;;;;;;5025506;28;28936;-75
2024/01/16 04:03:09;;;;;;;;;71.75;55.25;;;;;;;;5026255;28;28577;-74
2024/01/16 04:05:34;;;;;;;;;75.50;53.75;;;;;;;;5031823;28;28825;-75
2024/01/16 04:08:00;;;;;;;;;71.50;56.50;;;;;;;;5032375;28;29086;-75
2024/01/16 04:10:25;;;;;;;;;81.50;58.25;;;;;;;;5041544;28;28386;-75
2024/01/16 04:12:50;;;;;;;;;70.25;56.25;;;;;;;;5035694;28;28787;-74
2024/01/16 04:15:15;;;;;;;;;80.75;60.25;;;;;;;;5037333;28;28807;-74
2024/01/16 04:17:41;;;;;;;;;80.00;61.25;;;;;;;;5035630;28;28683;-75
2024/01/16 04:20:09;;;;;;;;;73.75;57.75;;;;;;;;5037027;28;29195;-75
2024/01/16 04:22:35;;;;;;;;;70.00;55.25;;;;;;;;5036867;28;29037;-74
2024/01/16 04:25:00;;;;;;;;;74.50;58.50;;;;;;;;5032015;28;28857;-77
2024/01/16 04:27:28;;;;;;;;;73.50;56.00;;;;;;;;5030805;28;28881;-77
2024/01/16 04:29:53;;;;;;;;;79.50;60.00;;;;;;;;5031963;28;28624;-75
2024/01/16 04:32:18;;;;;;;;;77.50;61.00;;;;;;;;5036700;28;28674;-75
2024/01/16 04:34:44;;;;;;;;;74.25;58.00;;;;;;;;5036190;28;28939;-76
2024/01/16 04:37:09;;;;;;;;;68.75;55.25;;;;;;;;5034821;28;29502;-76
2024/01/16 04:39:34;;;;;;;;;73.50;55.25;;;;;;;;5032435;28;28419;-76
2024/01/16 04:41:59;;;;;;;;;76.00;56.00;;;;;;;;5034467;28;28813;-76
2024/01/16 04:44:25;;;;;;;;;74.75;55.00;;;;;;;;5037572;28;28336;-75
2024/01/16 04:46:50;;;;;;;;;73.75;57.50;;;;;;;;5031601;28;28592;-76
2024/01/16 04:49:15;;;;;;;;;71.25;55.50;;;;;;;;5034506;28;28756;-75
2024/01/16 04:51:40;;;;;;;;;67.50;55.75;;;;;;;;5028326;28;28637;-75
2024/01/16 04:54:05;;;;;;;;;67.25;55.75;;;;;;;;5034470;28;28441;-76
2024/01/16 04:56:31;;;;;;;;;70.00;53.50;;;;;;;;5033540;28;28524;-74
2024/01/16 04:58:56;;;;;;;;;78.50;59.00;;;;;;;;5034464;28;28466;-75
2024/01/16 05:01:21;;;;;;;;;68.00;53.25;;;;;;;;5031976;28;28469;-74
2024/01/16 05:03:46;;;;;;;;;68.00;55.25;;;;;;;;5033274;28;28858;-74
2024/01/16 05:06:13;;;;;;;;;60.00;51.50;;;;;;;;5032325;28;28459;-74
2024/01/16 05:08:38;;;;;;;;;66.50;52.25;;;;;;;;5030928;28;29453;-75
2024/01/16 05:11:03;;;;;;;;;70.50;54.00;;;;;;;;5030800;28;28480;-76
2024/01/16 05:13:28;;;;;;;;;75.50;56.50;;;;;;;;5021157;28;28689;-76
2024/01/16 05:15:54;;;;;;;;;70.50;53.00;;;;;;;;5037670;28;29622;-76
2024/01/16 05:18:19;;;;;;;;;71.25;56.00;;;;;;;;5032681;28;28521;-76
2024/01/16 05:20:44;;;;;;;;;71.25;54.00;;;;;;;;5031488;28;29047;-75
2024/01/16 05:23:09;;;;;;;;;70.00;55.50;;;;;;;;5032591;28;28624;-76
2024/01/16 05:25:35;;;;;;;;;76.75;59.25;;;;;;;;5036450;28;29400;-75
2024/01/16 05:28:00;;;;;;;;;71.50;56.75;;;;;;;;5040261;28;28677;-76
2024/01/16 05:30:25;;;;;;;;;74.25;58.75;;;;;;;;5037173;28;28861;-75
2024/01/16 05:32:52;;;;;;;;;72.25;58.25;;;;;;;;5028606;28;28417;-75
2024/01/16 05:35:17;;;;;;;;;79.00;58.25;;;;;;;;5025781;28;30177;-78
2024/01/16 05:37:42;;;;;;;;;79.50;58.25;;;;;;;;5028199;28;28514;-75
2024/01/16 05:40:08;;;;;;;;;81.25;62.50;;;;;;;;5027116;28;28692;-74
2024/01/16 05:42:33;;;;;;;;;157.67;118.67;;;;;;;;5029215;28;28782;-72
2024/01/16 05:44:58;;;;;;;;;80.50;61.25;;;;;;;;5029320;28;29773;-75
2024/01/16 05:47:27;;;;;;;;;76.75;60.25;;;;;;;;5036363;28;28466;-73
2024/01/16 05:49:52;;;;;;;;;81.25;60.50;;;;;;;;5031889;28;29074;-74
2024/01/16 05:52:18;;;;;;;;;70.25;58.00;;;;;;;;5033264;28;28715;-76
2024/01/16 05:54:43;;;;;;;;;77.50;56.25;;;;;;;;5029568;28;29011;-73
2024/01/16 05:57:08;;;;;;;;;81.25;59.00;;;;;;;;5029740;28;28868;-73
2024/01/16 05:59:34;;;;;;;;;71.75;55.50;;;;;;;;5026738;28;28759;-80
2024/01/16 06:01:59;;;;;;;;;77.25;58.50;;;;;;;;5021370;28;29171;-75
2024/01/16 06:04:25;;;;;;;;;76.75;57.75;;;;;;;;5029140;28;28865;-74
2024/01/16 06:06:50;;;;;;;;;76.75;58.50;;;;;;;;5031797;28;28953;-75
2024/01/16 06:09:15;;;;;;;;;75.75;56.25;;;;;;;;5031426;28;28474;-76
2024/01/16 06:11:40;;;;;;;;;73.75;56.00;;;;;;;;5036912;28;28919;-74
2024/01/16 06:14:09;;;;;;;;;73.25;58.25;;;;;;;;5028268;28;28521;-74
2024/01/16 06:16:34;;;;;;;;;74.50;56.75;;;;;;;;5029717;28;28525;-75
2024/01/16 06:18:59;;;;;;;;;73.50;57.25;;;;;;;;5035896;28;28469;-74
2024/01/16 06:21:26;;;;;;;;;74.25;59.00;;;;;;;;5033063;28;28415;-72
2024/01/16 06:23:51;;;;;;;;;66.50;52.50;;;;;;;;5029717;28;28767;-74
2024/01/16 06:26:17;;;;;;;;;66.75;53.50;;;;;;;;5042657;28;28916;-82
2024/01/16 06:28:42;;;;;;;;;70.00;55.75;;;;;;;;5029099;28;28573;-74
2024/01/16 06:31:08;;;;;;;;;70.50;54.00;;;;;;;;5032166;28;28747;-72
2024/01/16 06:33:33;;;;;;;;;72.50;54.50;;;;;;;;5031614;28;30467;-73
2024/01/16 06:35:58;;;;;;;;;75.00;57.00;;;;;;;;5041335;28;28371;-74
2024/01/16 06:38:24;;;;;;;;;63.50;49.50;;;;;;;;5027254;28;28419;-75
2024/01/16 06:40:49;;;;;;;;;71.00;55.25;;;;;;;;5033498;28;29153;-73
2024/01/16 06:43:15;;;;;;;;;74.50;55.25;;;;;;;;5033317;28;28479;-73
2024/01/16 06:45:42;;;;;;;;;69.50;53.25;;;;;;;;5025364;28;28638;-73
2024/01/16 06:48:07;;;;;;;;;65.25;53.25;;;;;;;;5047150;28;28652;-72
2024/01/16 06:50:32;;;;;;;;;72.25;53.25;;;;;;;;5035407;28;28525;-74
2024/01/16 06:52:57;;;;;;;;;66.75;53.00;;;;;;;;5035312;28;29442;-76
2024/01/16 06:55:23;;;;;;;;;71.25;56.50;;;;;;;;5029309;28;28554;-78
2024/01/16 06:57:48;;;;;;;;;73.25;54.25;;;;;;;;5038187;28;28769;-79
2024/01/16 07:00:14;;;;;;;;;72.75;54.50;;;;;;;;5032843;28;28954;-80
2024/01/16 07:02:39;;;;;;;;;69.50;53.00;;;;;;;;5030877;28;28715;-77
2024/01/16 07:05:05;;;;;;;;;73.50;57.00;;;;;;;;5048323;28;28495;-79
2024/01/16 07:07:33;;;;;;;;;71.50;57.00;;;;;;;;5037278;28;28676;-79
2024/01/16 07:09:58;;;;;;;;;70.25;54.75;;;;;;;;5043247;28;28992;-79
2024/01/16 07:12:23;;;;;;;;;69.00;53.00;;;;;;;;5036883;28;28736;-78
2024/01/16 07:14:49;;;;;;;;;76.50;57.00;;;;;;;;5036499;28;28867;-78
2024/01/16 07:17:14;;;;;;;;;75.25;56.75;;;;;;;;5039102;28;28492;-77
2024/01/16 07:19:39;;;;;;;;;71.25;55.50;;;;;;;;5035455;28;28500;-78
2024/01/16 07:22:07;;;;;;;;;79.50;61.75;;;;;;;;5031452;28;28897;-80
2024/01/16 07:24:33;;;;;;;;;74.75;58.50;;;;;;;;5042502;28;28534;-79
2024/01/16 07:26:58;;;;;;;;;76.50;58.75;;;;;;;;5026494;28;28521;-77
2024/01/16 07:29:23;;;;;;;;;70.75;56.50;;;;;;;;5023821;28;28430;-79
2024/01/16 07:31:48;;;;;;;;;66.25;54.75;;;;;;;;5037964;28;28931;-81
2024/01/16 07:34:19;;;;;;;;;68.00;54.75;;;;;;;;5036812;28;28802;-77
2024/01/16 07:36:44;;;;;;;;;65.25;49.50;;;;;;;;5030979;28;28383;-77
2024/01/16 07:39:10;;;;;;;;;66.75;54.00;;;;;;;;5035191;28;29629;-77
2024/01/16 07:41:35;;;;;;;;;73.00;56.00;;;;;;;;5037365;28;29266;-74
2024/01/16 07:44:00;;;;;;;;;73.00;57.50;;;;;;;;5047405;28;28955;-76
2024/01/16 07:46:26;;;;;;;;;75.25;60.25;;;;;;;;5039947;28;28512;-75
2024/01/16 07:48:51;;;;;;;;;78.00;61.00;;;;;;;;5045069;28;29022;-74
2024/01/16 07:51:17;;;;;;;;;77.25;58.25;;;;;;;;5032795;28;28503;-73
2024/01/16 07:53:42;;;;;;;;;73.00;57.50;;;;;;;;5029101;28;28896;-75
2024/01/16 07:56:07;;;;;;;;;73.25;56.50;;;;;;;;5033055;28;28660;-74
2024/01/16 07:58:32;;;;;;;;;69.25;55.50;;;;;;;;5031416;28;28542;-74
2024/01/16 08:00:58;;;;;;;;;68.00;55.50;;;;;;;;5027498;28;28612;-73
2024/01/16 08:03:23;;;;;;;;;70.00;55.75;;;;;;;;5041925;28;28578;-72
2024/01/16 08:05:58;;;;;;;;;67.75;53.25;;;;;;;;5042465;28;28868;-72
2024/01/16 08:08:24;;;;;;;;;72.50;56.75;;;;;;;;5045256;28;28599;-73
2024/01/16 08:10:49;;;;;;;;;74.00;58.75;;;;;;;;5049375;28;28549;-73
2024/01/16 08:13:14;;;;;;;;;75.00;58.75;;;;;;;;5045986;28;28715;-72
2024/01/16 08:15:39;;;;;;;;;73.75;59.00;;;;;;;;5048182;28;28431;-73
2024/01/16 08:18:05;;;;;;;;;81.75;62.00;;;;;;;;5044441;28;28500;-73
2024/01/16 08:20:30;;;;;;;;;73.75;58.75;;;;;;;;5046589;28;28801;-72
2024/01/16 08:22:55;;;;;;;;;78.00;59.50;;;;;;;;5034892;28;28785;-73
2024/01/16 08:25:20;;;;;;;;;71.75;57.00;;;;;;;;5039232;28;28702;-73
2024/01/16 08:27:46;;;;;;;;;76.50;59.25;;;;;;;;5030172;28;29134;-72
2024/01/16 08:30:12;;;;;;;;;72.00;56.50;;;;;;;;5046284;28;28405;-74
2024/01/16 08:32:37;;;;;;;;;79.25;61.00;;;;;;;;5044474;28;28465;-71
2024/01/16 08:35:03;;;;;;;;;76.00;58.25;;;;;;;;5045660;28;28406;-73
2024/01/16 08:37:28;;;;;;;;;68.25;55.75;;;;;;;;5043884;28;28721;-72
2024/01/16 08:39:53;;;;;;;;;78.75;58.25;;;;;;;;5042813;28;28984;-73
2024/01/16 08:42:18;;;;;;;;;78.25;61.75;;;;;;;;5034004;28;28479;-74
2024/01/16 08:44:43;;;;;;;;;78.75;61.00;;;;;;;;5044410;28;28370;-73
2024/01/16 08:47:09;;;;;;;;;79.00;59.25;;;;;;;;5042579;28;29014;-74
2024/01/16 08:49:34;;;;;;;;;72.25;55.75;;;;;;;;5039491;28;28515;-74
2024/01/16 08:52:00;;;;;;;;;78.50;58.75;;;;;;;;5037693;28;28482;-72
2024/01/16 08:54:26;;;;;;;;;70.25;56.00;;;;;;;;5044595;28;28627;-71
2024/01/16 08:56:51;;;;;;;;;75.25;59.75;;;;;;;;5042170;28;30695;-73
2024/01/16 08:59:16;;;;;;;;;71.50;56.25;;;;;;;;5033711;28;28807;-71
2024/01/16 09:01:42;;;;;;;;;72.75;56.50;;;;;;;;5045041;28;28471;-72
2024/01/16 09:04:07;;;;;;;;;72.75;58.25;;;;;;;;5046857;28;28560;-72
2024/01/16 09:06:32;;;;;;;;;72.00;52.50;;;;;;;;5042858;28;29001;-74
2024/01/16 09:08:57;;;;;;;;;76.00;57.00;;;;;;;;5039227;28;31257;-72
2024/01/16 09:11:23;;;;;;;;;79.00;60.50;;;;;;;;5041261;28;28528;-72
2024/01/16 09:13:48;;;;;;;;;73.75;57.00;;;;;;;;5038934;28;28753;-70
2024/01/16 09:16:14;;;;;;;;;73.00;56.25;;;;;;;;5038712;28;28747;-74
2024/01/16 09:18:40;;;;;;;;;69.75;54.00;;;;;;;;5043484;28;28477;-72
2024/01/16 09:21:05;;;;;;;;;72.00;58.50;;;;;;;;5045189;28;28773;-72
2024/01/16 09:23:30;;;;;;;;;77.75;60.25;;;;;;;;5043307;28;28714;-73
2024/01/16 09:25:55;;;;;;;;;77.00;58.50;;;;;;;;5045438;28;28928;-73
2024/01/16 09:28:21;;;;;;;;;75.00;58.25;;;;;;;;5030704;28;29385;-73
2024/01/16 09:30:46;;;;;;;;;73.00;56.50;;;;;;;;5035651;28;28905;-73
2024/01/16 09:33:11;;;;;;;;;75.25;57.50;;;;;;;;5053247;28;28817;-72
2024/01/16 09:35:37;;;;;;;;;73.50;56.75;;;;;;;;5046275;28;28429;-74
2024/01/16 09:38:04;;;;;;;;;72.25;55.75;;;;;;;;5031906;28;28998;-72
2024/01/16 09:40:30;;;;;;;;;65.00;52.50;;;;;;;;5045884;28;28829;-73
2024/01/16 09:42:55;;;;;;;;;69.50;53.25;;;;;;;;5042135;28;28939;-70
2024/01/16 09:45:24;;;;;;;;;66.75;54.00;;;;;;;;5045779;28;28513;-73
2024/01/16 09:47:50;;;;;;;;;64.75;52.25;;;;;;;;5044027;28;28793;-73
2024/01/16 09:50:17;;;;;;;;;64.25;50.50;;;;;;;;5044272;28;29021;-73
2024/01/16 09:52:45;;;;;;;;;65.50;51.75;;;;;;;;5043983;28;28780;-73
2024/01/16 09:55:10;;;;;;;;;69.75;55.25;;;;;;;;5045187;28;28666;-73
2024/01/16 09:57:40;;;;;;;;;64.50;51.75;;;;;;;;5041728;28;29672;-73
2024/01/16 10:00:05;;;;;;;;;65.00;51.25;;;;;;;;5038067;28;28479;-72
2024/01/16 10:02:31;;;;;;;;;73.00;57.50;;;;;;;;5038486;28;28391;-74
2024/01/16 10:04:56;;;;;;;;;70.75;57.25;;;;;;;;5032777;28;29291;-74
2024/01/16 10:07:27;;;;;;;;;59.50;50.00;;;;;;;;5037283;28;29835;-72
2024/01/16 10:09:52;;;;;;;;;66.50;51.50;;;;;;;;5036477;28;28973;-73
2024/01/16 10:12:18;;;;;;;;;56.50;45.25;;;;;;;;5037087;28;28653;-72
2024/01/16 10:14:45;;;;;;;;;58.75;45.00;;;;;;;;5032474;28;28532;-72
2024/01/16 10:17:15;;;;;;;;;54.75;44.50;;;;;;;;5034975;28;30494;-73
2024/01/16 10:19:52;;;;;;;;;56.25;47.00;;;;;;;;5030853;28;29162;-72
2024/01/16 10:22:22;;;;;;;;;55.25;45.25;;;;;;;;5027484;28;28426;-73
2024/01/16 10:24:48;;;;;;;;;55.00;46.50;;;;;;;;5031697;28;29107;-73
2024/01/16 10:27:15;;;;;;;;;56.75;46.00;;;;;;;;5030293;28;28545;-74
2024/01/16 10:29:54;;;;;;;;;64.25;49.50;;;;;;;;5041741;28;28784;-72
2024/01/16 10:32:33;;;;;;;;;66.25;50.00;;;;;;;;5037542;28;28551;-70
2024/01/16 10:35:09;;;;;;;;;63.25;50.25;;;;;;;;5045952;28;28517;-72
2024/01/16 10:37:44;;;;;;;;;61.00;48.75;;;;;;;;5046714;28;28508;-70
2024/01/16 10:40:10;;;;;;;;;61.50;50.25;;;;;;;;5027115;28;28967;-72
2024/01/16 10:42:36;;;;;;;;;65.75;50.75;;;;;;;;5025832;28;28883;-73
2024/01/16 10:45:02;;;;;;;;;59.50;49.00;;;;;;;;5026842;28;28834;-74
2024/01/16 10:47:28;;;;;;;;;71.25;55.25;;;;;;;;5026267;28;29463;-73
2024/01/16 10:49:53;;;;;;;;;73.50;56.75;;;;;;;;5026331;28;28720;-72
2024/01/16 10:52:20;;;;;;;;;63.50;51.00;;;;;;;;5026955;28;28460;-73
2024/01/16 10:54:46;;;;;;;;;71.75;54.25;;;;;;;;5027592;28;29801;-74
2024/01/16 10:57:15;;;;;;;;;72.25;57.00;;;;;;;;5039341;28;28517;-72
2024/01/16 10:59:50;;;;;;;;;74.25;57.00;;;;;;;;5036124;28;28596;-73
2024/01/16 11:02:19;;;;;;;;;74.25;58.00;;;;;;;;5036825;28;28561;-75
2024/01/16 11:04:46;;;;;;;;;75.25;57.00;;;;;;;;5017431;28;28676;-75
2024/01/16 11:07:13;;;;;;;;;71.50;56.00;;;;;;;;5032941;28;28453;-75
2024/01/16 11:09:39;;;;;;;;;73.50;57.25;;;;;;;;5031542;28;28451;-74
2024/01/16 11:12:05;;;;;;;;;68.00;54.50;;;;;;;;5035089;28;28413;-72
2024/01/16 11:14:30;;;;;;;;;68.50;51.75;;;;;;;;5025993;28;28505;-74
2024/01/16 11:16:56;;;;;;;;;67.00;53.25;;;;;;;;5026202;28;29145;-74
2024/01/16 11:19:21;;;;;;;;;68.75;52.00;;;;;;;;5024283;28;28507;-73
2024/01/16 11:21:48;;;;;;;;;67.50;52.75;;;;;;;;5027246;28;28531;-75
2024/01/16 11:24:13;;;;;;;;;61.25;47.00;;;;;;;;5021057;28;28596;-74
2024/01/16 11:26:41;;;;;;;;;60.00;47.75;;;;;;;;5018735;28;28566;-73
2024/01/16 11:29:25;;;;;;;;;55.00;43.50;;;;;;;;5035138;28;28728;-75
2024/01/16 11:31:51;;;;;;;;;50.25;41.00;;;;;;;;5037009;28;28564;-74
2024/01/16 11:34:36;;;;;;;;;52.25;41.75;;;;;;;;5024960;28;29738;-74
2024/01/16 11:37:02;;;;;;;;;63.75;49.25;;;;;;;;5030352;28;31107;-75
2024/01/16 11:39:30;;;;;;;;;66.00;52.25;;;;;;;;5021231;28;28886;-75
2024/01/16 11:41:56;;;;;;;;;62.75;49.25;;;;;;;;5022814;28;28455;-73
2024/01/16 11:44:37;;;;;;;;;60.50;46.25;;;;;;;;5017191;28;29245;-76
2024/01/16 11:49:37;;;;;;;;;55.75;43.25;;;;;;;;4824922;26;29413;-78
2024/01/16 11:52:03;;;;;;;;;52.75;43.50;;;;;;;;5003860;28;28728;-79
2024/01/16 11:54:28;;;;;;;;;51.00;40.50;;;;;;;;5020537;28;28930;-80
2024/01/16 11:56:53;;;;;;;;;36.00;32.75;;;;;;;;5004967;28;28910;-80
2024/01/16 11:59:37;;;;;;;;;24.33;23.00;;;;;;;;5006789;28;28757;-77
2024/01/16 12:02:05;;;;;;;;;27.33;25.33;;;;;;;;5004831;28;28592;-74
2024/01/16 12:04:30;;;;;;;;;27.00;21.00;;;;;;;;5007253;28;28538;-75
2024/01/16 12:06:59;;;;;;;;;8.67;8.67;;;;;;;;5005811;28;29666;-74
2024/01/16 12:09:28;;;;;;;;;9.00;6.33;;;;;;;;5003176;28;28527;-75
2024/01/16 12:11:58;;;;;;;;;9.67;8.00;;;;;;;;5005297;28;28544;-77
2024/01/16 12:14:23;;;;;;;;;19.00;16.00;;;;;;;;5006099;28;29050;-76
2024/01/16 12:16:49;;;;;;;;;27.00;22.33;;;;;;;;5007871;28;28844;-76
2024/01/16 12:19:17;;;;;;;;;21.33;18.33;;;;;;;;5013024;28;28535;-81
2024/01/16 12:25:07;;;;;;;;;27.67;22.33;;;;;;;;4992394;28;28539;-85
2024/01/16 12:27:40;;;;;;;;;28.33;27.00;;;;;;;;5024486;28;28936;-84
2024/01/16 12:30:12;;;;;;;;;27.33;22.67;;;;;;;;5026586;28;28946;-84
2024/01/16 12:32:41;;;;;;;;;22.33;19.67;;;;;;;;5029393;28;28564;-86
2024/01/16 12:35:21;;;;;;;;;21.00;20.00;;;;;;;;5017415;28;28420;-85
2024/01/16 12:38:00;;;;;;;;;23.67;22.00;;;;;;;;5015337;28;28493;-84
2024/01/16 12:40:31;;;;;;;;;20.67;20.00;;;;;;;;5012625;28;28740;-84
2024/01/16 12:43:39;;;;;;;;;21.00;18.67;;;;;;;;5017278;28;28477;-85
2024/01/16 12:46:08;;;;;;;;;19.00;18.00;;;;;;;;4999952;28;28416;-83
2024/01/16 12:49:22;;;;;;;;;;;;;;;;;;;;;
2024/01/16 12:54:37;;;;;;;;;17.33;17.33;;;;;;;;5008894;28;28511;-83
2024/01/16 12:57:40;;;;;;;;;17.67;16.67;;;;;;;;5018152;28;29313;-83
2024/01/16 13:00:50;;;;;;;;;;;;;;;;;;;;;
2024/01/16 13:03:26;;;;;;;;;20.67;18.67;;;;;;;;4997590;28;56986;-84
2024/01/16 13:06:44;;;;;;;;;;;;;;;;;;;;;
2024/01/16 13:18:06;;;;;;;;;29.33;24.00;;;;;;;;4978111;28;28607;-79
2024/01/16 13:21:10;;;;;;;;;;;;;;;;;;;;;
2024/01/16 13:43:26;;;;;;;;;;;;;;;;;;;;;
2024/01/16 13:46:38;;;;;;;;;;;;;;;;;;;;;
2024/01/16 14:18:46;;;;;;;;;;;;;;;;;;;;;
2024/01/16 14:24:53;;;;;;;;;;;;;;;;;;;;;
2024/01/16 14:30:54;;;;;;;;;47.00;39.00;;;;;;;;4765653;29;28243;-86
2024/01/16 14:33:26;;;;;;;;;49.25;38.75;;;;;;;;4770626;29;28519;-88
2024/01/16 14:42:39;;;;;;;;;41.00;33.50;;;;;;;;4746348;30;28623;-83
2024/01/16 15:20:58;;;;;;;;;28.00;25.00;;;;;;;;4797198;29;28579;-86
2024/01/16 15:30:10;;;;;;;;;24.75;20.25;;;;;;;;4751775;29;28530;-83
2024/01/16 15:45:04;;;;;;;;;30.00;23.25;;;;;;;;4873866;28;28558;-86
2024/01/16 15:50:40;;;;;;;;;22.00;22.00;;;;;;;;4980263;28;28496;-76
2024/01/16 15:53:06;;;;;;;;;16.50;15.25;;;;;;;;4987902;28;29324;-76
2024/01/16 15:55:31;;;;;;;;;14.75;14.75;;;;;;;;4993008;28;28834;-80
2024/01/16 15:57:57;;;;;;;;;18.00;13.75;;;;;;;;5015478;28;28506;-78
2024/01/16 16:00:23;;;;;;;;;14.50;14.25;;;;;;;;5018240;28;28423;-79
2024/01/16 16:02:49;;;;;;;;;18.25;16.00;;;;;;;;5024390;28;28502;-79
2024/01/16 16:05:14;;;;;;;;;20.25;14.00;;;;;;;;5030477;28;28616;-79
2024/01/16 16:07:39;;;;;;;;;15.75;15.75;;;;;;;;5024829;28;28887;-79
2024/01/16 16:10:05;;;;;;;;;21.75;18.00;;;;;;;;5008526;28;29821;-78
2024/01/16 16:12:31;;;;;;;;;22.75;20.75;;;;;;;;5018472;28;28296;-75
2024/01/16 16:15:02;;;;;;;;;22.25;17.75;;;;;;;;5018193;28;27910;-75
2024/01/16 16:17:27;;;;;;;;;19.25;16.75;;;;;;;;5015676;28;28312;-75
2024/01/16 16:19:52;;;;;;;;;18.50;14.75;;;;;;;;5011794;28;28646;-75
2024/01/16 16:22:18;;;;;;;;;21.75;19.25;;;;;;;;5019096;28;28672;-76
2024/01/16 16:24:43;;;;;;;;;26.25;22.25;;;;;;;;5004116;28;28608;-76
2024/01/16 16:27:34;;;;;;;;;22.75;17.50;;;;;;;;5019321;28;28539;-79
2024/01/16 16:30:00;;;;;;;;;26.25;21.75;;;;;;;;5019826;28;28563;-84
2024/01/16 16:32:25;;;;;;;;;26.00;21.75;;;;;;;;5020508;28;29478;-78
2024/01/16 16:34:50;;;;;;;;;28.75;25.75;;;;;;;;5013303;28;28557;-78
2024/01/16 16:37:16;;;;;;;;;20.75;20.50;;;;;;;;5027420;28;28814;-79
2024/01/16 16:39:42;;;;;;;;;27.00;22.00;;;;;;;;4997974;28;29443;-76
2024/01/16 16:42:07;;;;;;;;;29.00;25.25;;;;;;;;5026040;28;28490;-79
2024/01/16 16:44:33;;;;;;;;;23.50;21.50;;;;;;;;5015319;28;28466;-79